createdAt,value
2023-02-28T00:00:29.187Z,0.68
2023-02-28T00:02:55.834Z,0.80
2023-02-28T00:05:23.791Z,0.80
2023-02-28T00:07:51.209Z,0.82
2023-02-28T00:10:21.879Z,0.79
2023-02-28T00:12:49.354Z,0.95
2023-02-28T00:15:16.316Z,0.76
2023-02-28T00:17:43.160Z,0.77
2023-02-28T00:20:11.282Z,0.77
2023-02-28T00:22:56.541Z,0.89
2023-02-28T00:25:25.096Z,0.79
2023-02-28T00:27:52.046Z,0.90
2023-02-28T00:30:20.539Z,0.91
2023-02-28T00:32:47.440Z,0.75
2023-02-28T00:35:14.578Z,0.83
2023-02-28T00:37:41.950Z,0.87
2023-02-28T00:40:10.146Z,0.94
2023-02-28T00:42:37.402Z,0.83
2023-02-28T00:45:05.855Z,0.79
2023-02-28T00:47:33.054Z,0.59
2023-02-28T00:50:00.333Z,0.69
2023-02-28T00:52:27.097Z,0.64
2023-02-28T00:54:53.725Z,0.63
2023-02-28T00:57:20.738Z,0.76
2023-02-28T00:59:47.395Z,0.69
2023-02-28T01:02:14.154Z,0.56
2023-02-28T01:04:40.804Z,0.65
2023-02-28T01:07:07.634Z,0.69
2023-02-28T01:09:34.471Z,0.67
2023-02-28T01:12:01.125Z,0.63
2023-02-28T01:14:27.787Z,0.87
2023-02-28T01:16:54.508Z,0.68
2023-02-28T01:19:21.112Z,0.53
2023-02-28T01:21:47.800Z,0.56
2023-02-28T01:24:14.445Z,0.52
2023-02-28T01:26:41.054Z,0.54
2023-02-28T01:29:07.844Z,0.53
2023-02-28T01:31:34.571Z,0.49
2023-02-28T01:34:01.329Z,0.52
2023-02-28T01:36:28.050Z,0.61
2023-02-28T01:38:55.075Z,0.57
2023-02-28T01:41:24.895Z,0.63
2023-02-28T01:43:58.958Z,0.60
2023-02-28T01:46:25.931Z,0.57
2023-02-28T01:48:56.041Z,0.39
2023-02-28T01:51:33.654Z,0.34
2023-02-28T01:54:03.882Z,0.33
2023-02-28T01:56:34.457Z,0.52
2023-02-28T01:59:01.335Z,0.54
2023-02-28T02:01:29.088Z,0.47
2023-02-28T02:03:58.905Z,0.38
2023-02-28T02:06:36.219Z,0.43
2023-02-28T02:09:04.068Z,0.59
2023-02-28T02:11:31.422Z,0.57
2023-02-28T02:14:15.100Z,0.64
2023-02-28T02:17:21.958Z,0.79
2023-02-28T02:20:40.244Z,0.70
2023-02-28T02:23:28.414Z,0.53
2023-02-28T02:26:08.320Z,0.57
2023-02-28T02:28:59.032Z,0.48
2023-02-28T02:32:23.466Z,0.58
2023-02-28T02:35:02.804Z,0.45
2023-02-28T02:37:44.305Z,0.41
2023-02-28T02:40:15.985Z,0.54
2023-02-28T02:42:51.964Z,0.68
2023-02-28T02:45:26.596Z,0.53
2023-02-28T02:47:53.255Z,0.48
2023-02-28T02:50:26.310Z,0.67
2023-02-28T02:52:56.948Z,0.52
2023-02-28T02:55:24.440Z,0.59
2023-02-28T02:57:54.890Z,0.57
2023-02-28T03:00:26.429Z,0.44
2023-02-28T03:02:55.658Z,0.32
2023-02-28T03:05:28.316Z,0.47
2023-02-28T03:07:54.997Z,0.44
2023-02-28T03:10:38.984Z,0.60
2023-02-28T03:13:15.891Z,0.66
2023-02-28T03:16:38.864Z,0.69
2023-02-28T03:19:30.878Z,0.42
2023-02-28T03:22:56.252Z,0.48
2023-02-28T03:26:03.465Z,0.49
2023-02-28T03:29:04.907Z,0.58
2023-02-28T03:31:36.954Z,0.53
2023-02-28T03:34:13.962Z,0.49
2023-02-28T03:36:46.709Z,0.55
2023-02-28T03:39:28.478Z,0.60
2023-02-28T03:42:01.103Z,0.61
2023-02-28T03:44:34.904Z,0.46
2023-02-28T03:47:05.459Z,0.52
2023-02-28T03:49:36.000Z,0.57
2023-02-28T03:52:04.574Z,0.44
2023-02-28T03:54:38.788Z,0.38
2023-02-28T03:57:27.458Z,0.35
2023-02-28T04:00:00.974Z,0.33
2023-02-28T04:02:29.269Z,0.33
2023-02-28T04:04:55.867Z,0.48
2023-02-28T04:07:22.712Z,0.37
2023-02-28T04:09:49.319Z,0.29
2023-02-28T04:12:16.127Z,0.31
2023-02-28T04:14:42.799Z,0.34
2023-02-28T04:17:09.424Z,0.46
2023-02-28T04:19:36.149Z,0.52
2023-02-28T04:22:02.880Z,0.39
2023-02-28T04:24:29.858Z,0.29
2023-02-28T04:26:57.737Z,0.54
2023-02-28T04:29:29.770Z,0.46
2023-02-28T04:32:01.099Z,0.29
2023-02-28T04:34:28.938Z,0.37
2023-02-28T04:37:12.055Z,0.36
2023-02-28T04:39:39.900Z,0.27
2023-02-28T04:42:07.087Z,0.29
2023-02-28T04:44:33.861Z,0.23
2023-02-28T04:47:00.478Z,0.21
2023-02-28T04:49:27.180Z,0.36
2023-02-28T04:51:54.227Z,0.31
2023-02-28T04:54:21.288Z,0.29
2023-02-28T04:56:50.969Z,0.22
2023-02-28T04:59:17.763Z,0.29
2023-02-28T05:01:48.335Z,0.23
2023-02-28T05:04:15.249Z,0.25
2023-02-28T05:06:41.933Z,0.43
2023-02-28T05:09:08.514Z,0.42
2023-02-28T05:11:36.406Z,0.57
2023-02-28T05:14:04.995Z,0.35
2023-02-28T05:16:32.322Z,0.36
2023-02-28T05:18:59.285Z,0.50
2023-02-28T05:21:37.481Z,0.35
2023-02-28T05:24:06.870Z,0.38
2023-02-28T05:26:39.849Z,0.26
2023-02-28T05:29:06.949Z,0.13
2023-02-28T05:31:33.941Z,0.06
2023-02-28T05:34:01.180Z,0.27
2023-02-28T05:36:28.115Z,0.22
2023-02-28T05:38:54.819Z,0.15
2023-02-28T05:41:21.487Z,0.05
2023-02-28T05:43:49.035Z,0.17
2023-02-28T05:46:16.350Z,0.03
2023-02-28T05:48:43.944Z,0.12
2023-02-28T05:51:10.927Z,0.04
2023-02-28T05:53:37.880Z,-0.01
2023-02-28T05:56:04.826Z,0.12
2023-02-28T05:58:32.288Z,0.09
2023-02-28T06:00:59.866Z,0.06
2023-02-28T06:03:27.130Z,0.04
2023-02-28T06:05:54.055Z,0.08
2023-02-28T06:08:20.705Z,0.10
2023-02-28T06:10:47.445Z,0.08
2023-02-28T06:13:14.191Z,0.00
2023-02-28T06:15:40.923Z,0.11
2023-02-28T06:18:07.573Z,0.08
2023-02-28T06:20:34.551Z,0.11
2023-02-28T06:23:01.557Z,0.09
2023-02-28T06:25:28.741Z,0.18
2023-02-28T06:27:56.447Z,0.19
2023-02-28T06:30:26.437Z,0.25
2023-02-28T06:32:53.348Z,0.21
2023-02-28T06:35:20.262Z,0.25
2023-02-28T06:37:48.326Z,0.20
2023-02-28T06:40:15.751Z,0.39
2023-02-28T06:42:42.532Z,0.35
2023-02-28T06:45:10.744Z,0.19
2023-02-28T06:47:41.726Z,0.24
2023-02-28T06:50:10.617Z,0.42
2023-02-28T06:52:41.793Z,0.21
2023-02-28T06:55:09.421Z,0.27
2023-02-28T06:57:37.097Z,0.42
2023-02-28T07:00:09.829Z,0.38
2023-02-28T07:02:37.406Z,0.46
2023-02-28T07:05:05.277Z,0.47
2023-02-28T07:07:31.940Z,0.54
2023-02-28T07:09:58.566Z,0.58
2023-02-28T07:12:25.389Z,0.73
2023-02-28T07:14:52.311Z,0.74
2023-02-28T07:17:19.137Z,0.73
2023-02-28T07:19:45.898Z,0.70
2023-02-28T07:22:15.479Z,0.67
2023-02-28T07:24:42.525Z,0.83
2023-02-28T07:27:09.527Z,0.74
2023-02-28T07:29:36.189Z,0.83
2023-02-28T07:32:02.813Z,0.99
2023-02-28T07:34:29.678Z,1.20
2023-02-28T07:36:56.955Z,1.10
2023-02-28T07:39:23.735Z,1.31
2023-02-28T07:41:50.495Z,1.53
2023-02-28T07:44:17.188Z,1.24
2023-02-28T07:46:44.320Z,1.36
2023-02-28T07:49:11.237Z,1.39
2023-02-28T07:51:38.019Z,1.31
2023-02-28T07:54:04.911Z,1.35
2023-02-28T07:56:32.050Z,1.46
2023-02-28T07:58:58.916Z,1.52
2023-02-28T08:01:25.571Z,1.53
2023-02-28T08:03:52.608Z,1.61
2023-02-28T08:06:21.873Z,1.56
2023-02-28T08:08:49.213Z,1.69
2023-02-28T08:11:17.119Z,1.87
2023-02-28T08:13:45.328Z,1.96
2023-02-28T08:16:13.259Z,1.94
2023-02-28T08:18:39.918Z,1.82
2023-02-28T08:21:11.175Z,1.95
2023-02-28T08:23:37.855Z,2.02
2023-02-28T08:26:04.984Z,2.22
2023-02-28T08:28:32.364Z,2.34
2023-02-28T08:30:59.583Z,2.36
2023-02-28T08:33:26.968Z,2.13
2023-02-28T08:35:55.737Z,2.32
2023-02-28T08:38:23.206Z,2.32
2023-02-28T08:40:50.318Z,2.20
2023-02-28T08:43:16.999Z,2.38
2023-02-28T08:45:43.863Z,2.57
2023-02-28T08:48:10.708Z,2.55
2023-02-28T08:50:37.666Z,2.43
2023-02-28T08:53:04.580Z,2.80
2023-02-28T08:55:32.043Z,3.02
2023-02-28T08:57:59.980Z,2.85
2023-02-28T09:00:26.721Z,3.18
2023-02-28T09:02:53.935Z,3.52
2023-02-28T09:05:20.586Z,3.50
2023-02-28T09:07:47.265Z,3.81
2023-02-28T09:10:13.926Z,3.40
2023-02-28T09:12:40.775Z,3.10
2023-02-28T09:15:08.554Z,2.98
2023-02-28T09:17:35.233Z,2.75
2023-02-28T09:20:01.959Z,2.70
2023-02-28T09:22:28.529Z,2.60
2023-02-28T09:24:55.175Z,2.47
2023-02-28T09:27:21.813Z,2.41
2023-02-28T09:29:48.864Z,2.32
2023-02-28T09:32:15.479Z,2.40
2023-02-28T09:34:42.569Z,2.38
2023-02-28T09:37:09.312Z,2.26
2023-02-28T09:39:35.898Z,2.31
2023-02-28T09:42:03.470Z,2.15
2023-02-28T09:44:33.646Z,2.14
2023-02-28T09:47:36.669Z,2.20
2023-02-28T09:50:31.466Z,2.33
2023-02-28T09:52:58.335Z,2.31
2023-02-28T09:55:41.424Z,2.41
2023-02-28T09:58:30.640Z,2.41
2023-02-28T10:01:54.466Z,2.38
2023-02-28T10:04:59.534Z,3.00
2023-02-28T10:10:31.994Z,3.32
2023-02-28T10:18:29.923Z,3.07
2023-02-28T10:20:57.782Z,2.95
2023-02-28T10:23:28.996Z,2.97
2023-02-28T10:26:00.469Z,3.13
2023-02-28T10:28:33.790Z,3.03
2023-02-28T10:31:04.125Z,2.97
2023-02-28T10:33:33.712Z,2.81
2023-02-28T10:36:00.597Z,2.79
2023-02-28T10:38:30.665Z,2.57
2023-02-28T10:41:20.786Z,2.50
2023-02-28T10:43:47.549Z,2.68
2023-02-28T10:46:29.622Z,2.87
2023-02-28T10:49:05.169Z,2.92
2023-02-28T10:51:40.961Z,2.65
2023-02-28T10:54:16.490Z,2.83
2023-02-28T10:56:43.312Z,2.64
2023-02-28T10:59:31.778Z,2.71
2023-02-28T11:01:58.546Z,2.95
2023-02-28T11:04:41.359Z,3.12
2023-02-28T11:07:21.538Z,3.18
2023-02-28T11:09:52.247Z,3.38
2023-02-28T11:12:31.453Z,3.48
2023-02-28T11:15:01.699Z,3.77
2023-02-28T11:17:31.621Z,4.08
2023-02-28T11:20:04.461Z,4.17
2023-02-28T11:22:33.838Z,4.34
2023-02-28T11:25:05.315Z,4.12
2023-02-28T11:27:47.720Z,4.36
2023-02-28T11:30:30.445Z,4.47
2023-02-28T11:32:57.723Z,3.95
2023-02-28T11:35:31.184Z,4.21
2023-02-28T11:37:58.773Z,4.32
2023-02-28T11:40:40.319Z,4.36
2023-02-28T11:43:52.275Z,4.62
2023-02-28T11:46:56.253Z,4.73
2023-02-28T11:49:58.235Z,4.78
2023-02-28T11:52:40.471Z,4.39
2023-02-28T11:55:27.219Z,4.28
2023-02-28T11:58:48.329Z,4.18
2023-02-28T12:01:37.036Z,4.04
2023-02-28T12:04:22.808Z,3.91
2023-02-28T12:07:27.079Z,4.17
2023-02-28T12:10:24.156Z,4.05
2023-02-28T12:13:33.145Z,3.89
2023-02-28T12:16:29.740Z,4.26
2023-02-28T12:19:08.693Z,3.97
2023-02-28T12:21:42.344Z,3.88
2023-02-28T12:24:35.245Z,4.13
2023-02-28T12:27:04.278Z,4.43
2023-02-28T12:29:36.121Z,4.37
2023-02-28T12:32:11.842Z,4.20
2023-02-28T12:34:41.214Z,4.20
2023-02-28T12:37:31.138Z,3.95
2023-02-28T12:40:06.943Z,3.97
2023-02-28T12:42:38.697Z,3.97
2023-02-28T12:45:28.425Z,4.17
2023-02-28T12:48:05.637Z,4.34
2023-02-28T12:50:34.130Z,4.38
2023-02-28T12:53:18.811Z,4.39
2023-02-28T12:56:00.142Z,4.39
2023-02-28T12:59:02.406Z,4.44
2023-02-28T13:01:40.446Z,4.09
2023-02-28T13:04:33.541Z,4.34
2023-02-28T13:07:33.265Z,4.25
2023-02-28T13:10:02.303Z,4.36
2023-02-28T13:12:29.520Z,4.25
2023-02-28T13:15:06.630Z,4.42
2023-02-28T13:17:41.510Z,4.26
2023-02-28T13:20:24.379Z,4.49
2023-02-28T13:22:54.107Z,4.45
2023-02-28T13:25:43.607Z,4.63
2023-02-28T13:28:12.974Z,4.50
2023-02-28T13:31:12.171Z,4.38
2023-02-28T13:34:14.093Z,4.32
2023-02-28T13:36:40.858Z,4.35
2023-02-28T13:39:35.993Z,4.44
2023-02-28T13:42:24.200Z,4.52
2023-02-28T13:45:27.593Z,4.87
2023-02-28T13:48:00.380Z,4.90
2023-02-28T13:50:39.685Z,4.73
2023-02-28T13:53:50.170Z,4.64
2023-02-28T13:56:34.575Z,4.46
2023-02-28T13:59:35.553Z,4.41
2023-02-28T14:02:30.332Z,4.43
2023-02-28T14:05:04.085Z,4.33
2023-02-28T14:07:46.916Z,4.29
2023-02-28T14:10:28.015Z,4.14
2023-02-28T14:12:59.129Z,4.17
2023-02-28T14:15:42.476Z,4.19
2023-02-28T14:18:35.329Z,4.48
2023-02-28T14:21:22.338Z,4.48
2023-02-28T14:24:17.203Z,4.33
2023-02-28T14:27:02.289Z,4.37
2023-02-28T14:30:13.920Z,4.41
2023-02-28T14:33:06.803Z,4.48
2023-02-28T14:35:45.788Z,4.45
2023-02-28T14:38:19.450Z,4.57
2023-02-28T14:40:47.489Z,4.73
2023-02-28T14:43:23.388Z,4.46
2023-02-28T14:45:52.525Z,4.50
2023-02-28T14:48:20.216Z,4.47
2023-02-28T14:50:55.532Z,4.46
2023-02-28T14:53:24.379Z,4.42
2023-02-28T14:55:56.662Z,4.56
2023-02-28T14:58:24.743Z,4.61
2023-02-28T15:00:54.777Z,4.55
2023-02-28T15:03:24.830Z,4.68
2023-02-28T15:05:59.575Z,4.35
2023-02-28T15:08:30.394Z,4.29
2023-02-28T15:11:02.820Z,4.22
2023-02-28T15:13:41.876Z,4.20
2023-02-28T15:16:18.276Z,4.25
2023-02-28T15:18:56.159Z,4.23
2023-02-28T15:21:37.341Z,4.22
2023-02-28T15:24:28.778Z,4.12
2023-02-28T15:26:58.626Z,4.06
2023-02-28T15:29:26.810Z,4.03
2023-02-28T15:32:01.888Z,4.05
2023-02-28T15:34:43.456Z,3.94
2023-02-28T15:37:46.844Z,3.93
2023-02-28T15:40:24.971Z,3.96
2023-02-28T15:43:15.197Z,3.82
2023-02-28T15:45:57.013Z,3.73
2023-02-28T15:48:32.254Z,3.76
2023-02-28T15:51:04.378Z,3.63
2023-02-28T15:53:33.832Z,3.62
2023-02-28T15:56:25.359Z,3.57
2023-02-28T15:58:59.232Z,3.53
2023-02-28T16:01:29.588Z,3.53
2023-02-28T16:03:59.591Z,3.52
2023-02-28T16:06:46.858Z,3.54
2023-02-28T16:09:18.172Z,3.36
2023-02-28T16:11:50.253Z,3.45
2023-02-28T16:14:32.074Z,3.34
2023-02-28T16:17:08.248Z,3.28
2023-02-28T16:19:34.921Z,3.30
2023-02-28T16:22:02.267Z,3.30
2023-02-28T16:24:28.903Z,3.28
2023-02-28T16:26:57.360Z,3.30
2023-02-28T16:29:33.979Z,3.34
2023-02-28T16:32:01.480Z,3.28
2023-02-28T16:34:28.770Z,3.17
2023-02-28T16:36:55.561Z,3.24
2023-02-28T16:39:22.164Z,3.07
2023-02-28T16:41:50.327Z,3.07
2023-02-28T16:44:46.278Z,3.00
2023-02-28T16:47:13.038Z,2.95
2023-02-28T16:49:43.563Z,2.94
2023-02-28T16:52:11.405Z,2.89
2023-02-28T16:54:38.656Z,2.78
2023-02-28T16:57:07.009Z,2.76
2023-02-28T16:59:33.903Z,2.79
2023-02-28T17:02:00.736Z,2.68
2023-02-28T17:04:28.166Z,2.82
2023-02-28T17:06:55.277Z,2.75
2023-02-28T17:09:26.324Z,2.60
2023-02-28T17:11:57.948Z,2.71
2023-02-28T17:14:24.760Z,2.71
2023-02-28T17:16:51.798Z,2.58
2023-02-28T17:19:18.977Z,2.46
2023-02-28T17:21:46.221Z,2.53
2023-02-28T17:24:28.888Z,2.47
2023-02-28T17:26:57.148Z,2.44
2023-02-28T17:29:25.834Z,2.46
2023-02-28T17:31:52.757Z,2.41
2023-02-28T17:34:20.757Z,2.40
2023-02-28T17:36:49.132Z,2.49
2023-02-28T17:39:25.212Z,2.46
2023-02-28T17:41:53.465Z,2.41
2023-02-28T17:44:20.922Z,2.49
2023-02-28T17:46:48.092Z,2.38
2023-02-28T17:49:14.899Z,2.34
2023-02-28T17:51:41.559Z,2.08
2023-02-28T17:54:08.247Z,2.02
2023-02-28T17:56:34.994Z,1.96
2023-02-28T17:59:01.910Z,2.00
2023-02-28T18:01:28.676Z,1.99
2023-02-28T18:03:56.140Z,1.99
2023-02-28T18:06:28.729Z,1.96
2023-02-28T18:08:55.885Z,1.93
2023-02-28T18:11:24.463Z,1.86
2023-02-28T18:13:53.394Z,1.82
2023-02-28T18:16:22.080Z,1.86
2023-02-28T18:18:49.478Z,1.88
2023-02-28T18:21:17.226Z,1.94
2023-02-28T18:23:52.195Z,1.97
2023-02-28T18:26:19.874Z,1.96
2023-02-28T18:28:47.747Z,2.14
2023-02-28T18:31:17.897Z,2.00
2023-02-28T18:33:45.979Z,1.90
2023-02-28T18:36:12.738Z,1.75
2023-02-28T18:38:39.732Z,1.79
2023-02-28T18:41:07.658Z,1.89
2023-02-28T18:43:36.297Z,1.88
2023-02-28T18:46:10.485Z,1.85
2023-02-28T18:48:38.166Z,1.67
2023-02-28T18:51:13.927Z,1.77
2023-02-28T18:53:43.141Z,1.80
2023-02-28T18:56:13.285Z,1.79
2023-02-28T18:58:42.261Z,1.48
2023-02-28T19:01:19.220Z,1.38
2023-02-28T19:03:46.101Z,1.34
2023-02-28T19:06:13.128Z,1.28
2023-02-28T19:08:40.135Z,1.25
2023-02-28T19:11:09.193Z,1.38
2023-02-28T19:13:35.984Z,1.33
2023-02-28T19:16:04.381Z,1.21
2023-02-28T19:18:31.276Z,1.03
2023-02-28T19:20:59.022Z,1.28
2023-02-28T19:23:28.334Z,1.35
2023-02-28T19:25:56.796Z,1.52
2023-02-28T19:28:25.212Z,1.41
2023-02-28T19:30:53.216Z,1.24
2023-02-28T19:33:20.820Z,1.26
2023-02-28T19:35:48.574Z,1.29
2023-02-28T19:38:15.922Z,1.12
2023-02-28T19:40:42.963Z,1.20
2023-02-28T19:43:09.885Z,1.28
2023-02-28T19:45:37.808Z,1.12
2023-02-28T19:48:05.542Z,1.08
2023-02-28T19:50:32.220Z,1.19
2023-02-28T19:53:00.543Z,1.00
2023-02-28T19:55:27.408Z,1.04
2023-02-28T19:57:54.280Z,0.85
2023-02-28T20:00:21.099Z,0.88
2023-02-28T20:02:47.779Z,1.07
2023-02-28T20:05:14.467Z,0.95
2023-02-28T20:07:41.405Z,1.04
2023-02-28T20:10:08.684Z,1.07
2023-02-28T20:12:35.379Z,0.99
2023-02-28T20:15:02.141Z,1.02
2023-02-28T20:17:29.427Z,0.79
2023-02-28T20:19:56.786Z,0.70
2023-02-28T20:22:23.513Z,0.68
2023-02-28T20:24:50.231Z,0.77
2023-02-28T20:27:17.610Z,0.74
2023-02-28T20:29:44.270Z,0.72
2023-02-28T20:32:10.996Z,0.71
2023-02-28T20:34:37.827Z,0.78
2023-02-28T20:37:04.458Z,0.74
2023-02-28T20:39:31.222Z,0.73
2023-02-28T20:41:57.776Z,0.67
2023-02-28T20:44:24.614Z,0.69
2023-02-28T20:46:51.406Z,0.69
2023-02-28T20:49:18.207Z,0.70
2023-02-28T20:51:44.818Z,0.53
2023-02-28T20:54:12.081Z,0.58
2023-02-28T20:56:39.007Z,0.53
2023-02-28T20:59:05.868Z,0.70
2023-02-28T21:01:33.015Z,0.73
2023-02-28T21:04:06.246Z,0.81
2023-02-28T21:06:36.092Z,0.80
2023-02-28T21:09:05.997Z,0.77
2023-02-28T21:11:35.000Z,0.74
2023-02-28T21:14:04.278Z,0.62
2023-02-28T21:16:31.588Z,0.47
2023-02-28T21:19:04.919Z,0.41
2023-02-28T21:21:35.122Z,0.35
2023-02-28T21:24:01.906Z,0.34
2023-02-28T21:26:29.526Z,0.38
2023-02-28T21:29:01.194Z,0.29
2023-02-28T21:31:31.288Z,0.24
2023-02-28T21:33:59.360Z,0.29
2023-02-28T21:36:29.860Z,0.36
2023-02-28T21:39:00.093Z,0.31
2023-02-28T21:41:28.398Z,0.51
2023-02-28T21:43:55.729Z,0.42
2023-02-28T21:46:25.570Z,0.19
2023-02-28T21:48:52.762Z,0.03
2023-02-28T21:51:27.867Z,0.07
2023-02-28T21:53:54.675Z,0.09
2023-02-28T21:56:24.600Z,0.00
2023-02-28T21:58:51.536Z,0.08
2023-02-28T22:01:20.413Z,0.02
2023-02-28T22:03:48.847Z,0.10
2023-02-28T22:06:28.515Z,0.10
2023-02-28T22:08:58.602Z,0.20
2023-02-28T22:11:25.984Z,0.21
2023-02-28T22:13:57.040Z,0.10
2023-02-28T22:16:26.087Z,-0.12
2023-02-28T22:18:53.475Z,-0.03
2023-02-28T22:21:23.717Z,0.04
2023-02-28T22:23:50.888Z,0.06
2023-02-28T22:26:20.687Z,0.11
2023-02-28T22:28:47.751Z,0.14
2023-02-28T22:31:29.533Z,0.12
2023-02-28T22:33:58.798Z,-0.04
2023-02-28T22:36:25.942Z,-0.03
2023-02-28T22:38:53.266Z,-0.06
2023-02-28T22:41:22.351Z,-0.02
2023-02-28T22:43:57.648Z,-0.11
2023-02-28T22:46:25.748Z,-0.08
2023-02-28T22:48:52.692Z,-0.19
2023-02-28T22:51:22.348Z,-0.26
2023-02-28T22:53:50.925Z,-0.51
2023-02-28T22:56:19.390Z,-0.44
2023-02-28T22:58:54.179Z,-0.41
2023-02-28T23:01:22.455Z,-0.39
2023-02-28T23:03:49.519Z,-0.24
2023-02-28T23:06:26.978Z,-0.28
2023-02-28T23:08:56.736Z,-0.25
2023-02-28T23:11:26.104Z,-0.58
2023-02-28T23:13:59.087Z,-0.58
2023-02-28T23:16:35.873Z,-0.43
2023-02-28T23:19:05.597Z,-0.67
2023-02-28T23:21:32.938Z,-0.95
2023-02-28T23:24:02.939Z,-0.79
2023-02-28T23:26:31.675Z,-0.87
2023-02-28T23:28:59.491Z,-0.79
2023-02-28T23:31:26.163Z,-0.58
2023-02-28T23:33:52.879Z,-0.72
2023-02-28T23:36:19.627Z,-0.67
2023-02-28T23:38:48.297Z,-0.71
2023-02-28T23:41:15.744Z,-0.81
2023-02-28T23:43:42.845Z,-0.98
2023-02-28T23:46:10.478Z,-0.97
2023-02-28T23:48:37.610Z,-1.04
2023-02-28T23:51:09.984Z,-1.09
2023-02-28T23:53:41.408Z,-0.93
2023-02-28T23:56:10.255Z,-0.96
2023-02-28T23:58:37.118Z,-1.16
